createdAt,value
2023-05-10T00:04:45.689Z,81.55
2023-05-10T00:09:56.067Z,81.81
2023-05-10T00:14:59.432Z,81.25
2023-05-10T00:20:05.289Z,80.31
2023-05-10T00:25:05.843Z,79.53
2023-05-10T00:30:17.441Z,79.27
2023-05-10T00:35:21.391Z,77.95
2023-05-10T00:40:21.428Z,78.35
2023-05-10T00:45:25.453Z,79.32
2023-05-10T00:51:18.514Z,80.22
2023-05-10T00:56:20.988Z,80.27
2023-05-10T01:01:38.308Z,80.21
2023-05-10T01:06:53.753Z,80.79
2023-05-10T01:12:09.480Z,81.80
2023-05-10T01:17:14.881Z,81.07
2023-05-10T01:22:30.321Z,80.35
2023-05-10T01:27:57.793Z,80.20
2023-05-10T01:33:11.151Z,79.71
2023-05-10T01:38:23.200Z,79.40
2023-05-10T01:43:29.805Z,78.67
2023-05-10T01:48:33.251Z,77.84
2023-05-10T01:53:42.668Z,77.05
2023-05-10T01:58:54.611Z,76.31
2023-05-10T02:04:05.425Z,75.67
2023-05-10T02:14:48.110Z,76.54
2023-05-10T02:19:51.044Z,75.77
2023-05-10T02:25:01.424Z,75.94
2023-05-10T02:30:09.251Z,77.09
2023-05-10T02:35:16.031Z,78.09
2023-05-10T02:40:30.090Z,79.40
2023-05-10T02:45:33.599Z,79.25
2023-05-10T02:50:39.570Z,79.42
2023-05-10T02:56:02.910Z,79.16
2023-05-10T03:01:21.773Z,78.66
2023-05-10T03:06:23.204Z,78.33
2023-05-10T03:11:48.746Z,77.70
2023-05-10T03:16:56.457Z,76.89
2023-05-10T03:22:13.735Z,76.13
2023-05-10T03:33:20.511Z,74.51
2023-05-10T03:38:32.876Z,74.09
2023-05-10T03:43:56.063Z,74.00
2023-05-10T03:49:34.921Z,73.46
2023-05-10T03:54:57.571Z,73.69
2023-05-10T04:05:33.480Z,72.09
2023-05-10T04:11:08.463Z,71.26
2023-05-10T04:16:21.150Z,71.55
2023-05-10T04:21:27.964Z,70.98
2023-05-10T04:26:31.566Z,69.34
2023-05-10T04:31:39.314Z,68.66
2023-05-10T04:36:40.955Z,68.66
2023-05-10T04:41:53.302Z,68.32
2023-05-10T04:46:55.962Z,68.95
2023-05-10T04:51:59.509Z,69.99
2023-05-10T04:57:07.615Z,69.29
2023-05-10T05:02:17.042Z,69.77
2023-05-10T05:07:29.787Z,69.71
2023-05-10T05:12:28.534Z,69.47
2023-05-10T05:17:38.737Z,69.80
2023-05-10T05:23:49.899Z,69.80
2023-05-10T05:29:09.886Z,69.76
2023-05-10T05:34:48.528Z,70.73
2023-05-10T05:42:15.702Z,71.40
2023-05-10T05:47:55.942Z,72.01
2023-05-10T06:00:28.990Z,68.74
2023-05-10T06:11:53.505Z,62.21
2023-05-10T06:17:13.910Z,50.42
2023-05-10T06:28:23.653Z,45.32
2023-05-10T06:33:31.985Z,41.91
2023-05-10T06:44:10.139Z,41.22
2023-05-10T06:49:52.256Z,39.89
2023-05-10T06:55:00.699Z,39.28
2023-05-10T07:00:00.653Z,38.31
2023-05-10T07:05:15.809Z,37.82
2023-05-10T07:10:19.799Z,37.63
2023-05-10T07:15:22.128Z,38.22
2023-05-10T07:20:30.050Z,39.25
2023-05-10T07:25:42.476Z,38.58
2023-05-10T07:30:44.180Z,37.95
2023-05-10T07:42:05.491Z,34.88
2023-05-10T07:48:23.563Z,36.05
2023-05-10T07:53:49.539Z,33.92
2023-05-10T07:59:48.443Z,35.35
2023-05-10T08:05:41.309Z,37.06
2023-05-10T08:11:14.442Z,35.97
2023-05-10T08:23:18.574Z,38.08
2023-05-10T08:28:51.592Z,39.30
2023-05-10T08:33:58.792Z,39.12
2023-05-10T08:39:04.125Z,31.30
2023-05-10T08:44:26.158Z,30.76
2023-05-10T08:50:21.227Z,27.43
2023-05-10T08:55:48.424Z,25.58
2023-05-10T09:01:40.864Z,22.92
2023-05-10T09:09:59.904Z,22.54
2023-05-10T09:13:08.235Z,21.89
2023-05-10T09:18:51.199Z,21.35
2023-05-10T09:24:37.323Z,22.48
2023-05-10T09:30:40.492Z,21.85
2023-05-10T09:37:37.428Z,21.39
2023-05-10T09:43:16.601Z,21.20
2023-05-10T09:48:35.242Z,22.24
2023-05-10T09:54:28.315Z,22.34
2023-05-10T10:00:08.329Z,23.64
2023-05-10T10:05:17.016Z,27.66
2023-05-10T10:11:06.353Z,27.97
2023-05-10T10:28:26.850Z,26.91
2023-05-10T10:34:05.898Z,27.03
2023-05-10T10:39:26.318Z,27.38
2023-05-10T10:45:00.167Z,26.18
2023-05-10T10:50:29.128Z,24.95
2023-05-10T10:56:13.432Z,25.76
2023-05-10T11:01:20.837Z,26.78
2023-05-10T11:06:43.511Z,26.68
2023-05-10T11:12:39.837Z,28.54
2023-05-10T11:18:14.087Z,29.49
2023-05-10T11:23:54.302Z,30.69
2023-05-10T11:28:59.883Z,30.02
2023-05-10T11:34:22.213Z,29.92
2023-05-10T11:39:27.950Z,30.48
2023-05-10T11:44:44.995Z,30.18
2023-05-10T11:49:52.904Z,29.21
2023-05-10T11:55:03.146Z,29.30
2023-05-10T12:00:08.910Z,29.41
2023-05-10T12:05:21.425Z,30.32
2023-05-10T12:10:28.877Z,29.85
2023-05-10T12:15:28.463Z,30.67
2023-05-10T12:20:34.908Z,30.65
2023-05-10T12:25:42.464Z,31.28
2023-05-10T12:30:43.818Z,31.24
2023-05-10T12:35:55.450Z,29.67
2023-05-10T12:40:56.811Z,30.97
2023-05-10T12:46:10.029Z,30.71
2023-05-10T12:51:10.181Z,30.08
2023-05-10T12:56:10.482Z,29.83
2023-05-10T13:06:40.166Z,28.88
2023-05-10T13:12:01.296Z,29.11
2023-05-10T13:17:06.294Z,29.09
2023-05-10T13:22:08.041Z,30.04
2023-05-10T13:27:09.688Z,30.79
2023-05-10T13:32:11.596Z,30.49
2023-05-10T13:37:21.969Z,30.08
2023-05-10T13:42:21.282Z,30.49
2023-05-10T13:47:24.553Z,30.32
2023-05-10T13:52:42.880Z,30.45
2023-05-10T13:58:03.698Z,30.98
2023-05-10T14:03:11.565Z,31.37
2023-05-10T14:08:15.283Z,32.17
2023-05-10T14:13:14.242Z,32.31
2023-05-10T14:18:15.633Z,33.50
2023-05-10T14:23:22.583Z,34.07
2023-05-10T14:28:23.398Z,34.32
2023-05-10T14:39:50.299Z,32.74
2023-05-10T14:45:01.430Z,31.66
2023-05-10T14:50:16.649Z,31.24
2023-05-10T14:55:28.803Z,31.69
2023-05-10T15:00:46.994Z,32.17
2023-05-10T15:06:00.927Z,32.42
2023-05-10T15:11:08.489Z,32.10
2023-05-10T15:16:27.718Z,31.71
2023-05-10T15:22:15.928Z,32.00
2023-05-10T15:34:43.423Z,32.30
2023-05-10T15:40:29.152Z,32.14
2023-05-10T15:54:05.814Z,32.33
2023-05-10T16:00:18.137Z,33.19
2023-05-10T16:06:32.818Z,33.79
2023-05-10T16:12:24.376Z,35.76
2023-05-10T16:18:33.725Z,36.43
2023-05-10T16:50:13.102Z,38.78
2023-05-10T17:16:14.606Z,40.20
2023-05-10T17:27:47.811Z,40.76
2023-05-10T17:33:20.517Z,41.07
2023-05-10T17:38:42.981Z,41.55
2023-05-10T17:51:24.142Z,42.14
2023-05-10T18:04:32.235Z,43.01
2023-05-10T18:10:11.189Z,43.69
2023-05-10T18:16:00.987Z,44.29
2023-05-10T18:21:47.479Z,44.73
2023-05-10T18:35:14.612Z,45.85
2023-05-10T18:53:03.307Z,46.78
2023-05-10T18:58:24.135Z,47.10
2023-05-10T19:03:31.121Z,47.06
2023-05-10T19:08:38.704Z,47.14
2023-05-10T19:13:54.918Z,47.13
2023-05-10T19:19:19.960Z,47.00
2023-05-10T19:24:52.292Z,46.99
2023-05-10T19:29:51.167Z,46.97
2023-05-10T19:35:34.831Z,46.90
2023-05-10T19:47:21.453Z,46.50
2023-05-10T19:52:30.934Z,45.95
2023-05-10T19:57:52.870Z,45.88
2023-05-10T20:08:36.542Z,45.77
2023-05-10T20:14:02.299Z,46.16
2023-05-10T20:19:10.623Z,45.86
2023-05-10T20:24:18.749Z,46.02
2023-05-10T20:29:23.687Z,45.95
2023-05-10T20:34:29.168Z,46.16
2023-05-10T20:39:46.386Z,46.25
2023-05-10T20:44:55.635Z,46.52
2023-05-10T20:50:11.461Z,47.08
2023-05-10T20:55:22.651Z,47.69
2023-05-10T21:00:49.516Z,48.18
2023-05-10T21:06:15.607Z,48.43
2023-05-10T21:11:22.756Z,48.85
2023-05-10T21:16:29.819Z,49.26
2023-05-10T21:21:40.991Z,49.82
2023-05-10T21:26:47.121Z,50.36
2023-05-10T21:31:59.480Z,51.24
2023-05-10T21:36:58.934Z,51.79
2023-05-10T21:42:07.370Z,51.99
2023-05-10T21:47:05.086Z,52.46
2023-05-10T21:52:07.946Z,52.46
2023-05-10T21:57:10.802Z,52.93
2023-05-10T22:02:15.401Z,53.03
2023-05-10T22:07:16.488Z,53.24
2023-05-10T22:12:29.051Z,53.35
2023-05-10T22:17:31.089Z,53.72
2023-05-10T22:22:33.830Z,53.87
2023-05-10T22:28:11.537Z,53.99
2023-05-10T22:33:23.156Z,54.36
2023-05-10T22:38:27.900Z,54.54
2023-05-10T22:43:25.993Z,54.29
2023-05-10T22:48:25.710Z,54.77
2023-05-10T22:53:28.295Z,54.65
2023-05-10T22:58:30.254Z,54.57
2023-05-10T23:03:31.580Z,55.23
2023-05-10T23:08:32.585Z,56.45
2023-05-10T23:13:41.468Z,58.50
2023-05-10T23:18:42.766Z,60.33
2023-05-10T23:23:44.935Z,60.85
2023-05-10T23:28:59.286Z,61.08
2023-05-10T23:34:00.661Z,60.89
2023-05-10T23:39:08.019Z,62.27
2023-05-10T23:44:06.432Z,62.38
2023-05-10T23:49:21.419Z,62.23
2023-05-10T23:54:21.093Z,61.47
2023-05-10T23:59:31.837Z,61.09
